< < Back
Terminal Aerodrome Forecast


Current Version              Previous Versions:   1  2  3  4  5  6  7  8  9  

Terminal Aerodrome Forecast

590
FTUS44 KMOB 222300
TAFMOB
TAF
KMOB 222333Z 2300/2324 05007KT P6SM SKC
     FM231200 01005KT P6SM SKC=

Latest METAR

010
SAUS80 KWBC 240200 CCA
MTRMOB
METAR KMOB 240156Z 07007KT 10SM CLR 22/16 A3010 RMK AO2 SLP188
T02170156


USA.gov is the U.S. government's official web portal to all federal, state and local government web resources and services.